Airfield :
LOGIN :

Register | Disclaimer

   EN    FR    IT 

 










Legend :    VFR   Marginal VFR   IFR   Intensive IFR   Very Intensive IFR
Visi :
Ceiling :
>= 8 km
>= 3000ft
5 to 8 km
1000 to 3000 ft
1500m to 5 km
500 to 1000 ft
800 to 1500m
200 to 500 ft
< 800m
< 200 ft
Symbols :   Thunderstorms  Fog  Heavy snow  Heavy precipitations  Wind > 20 kt
SIGMETs :     Misc.  Thunderstorms  Icing  Turbulence  Mountain Waves  Volcanic Ashes






- Airport Elevation : 257 ft
- IATA code : MAN


EGCC - Manchester

CURRENT METAR :
  • 060550Z AUTO 20004KT 170V230 9999 SCT029 BKN033 10/08 Q1009

EXPIRED METARs :
  • 060520Z AUTO 21005KT 9999 BKN029 10/08 Q1008
  • 060450Z AUTO 21003KT 9999 FEW017 SCT023 BKN029 10/08 Q1007
  • 060420Z AUTO 24008KT 9999 -RA FEW024 OVC038 11/08 Q1007
  • 060350Z AUTO 26010KT 9999 SCT012/// SCT017/// BKN023/// //////TCU 11/09 Q1006 NOSIG

TAF TAF EGCC
Valid from the 06 at 06:00 until the 07 at 12:00 UTC


060456Z 0606/0712 24009KT 9999 SCT020
PROB30
TEMPO 0608/0615 8000 -SHRA
PROB40 0703/0706 8000
BECMG 0709/0712 18010KT
ATIS : +44 161 499 2324



MET'MAP, your aeronautical weather chart ! - Copyright ORBIFLY December 2007 - Disclaimer

ORBIFLY MET'MAP TEAM :

Programming & Development : Alexandra Zaïnal
Concept & original design : Baudouin d'Aumeries
Assistance for programming : Marc-Olivier Méhu
Technical & hardware support : Manuel Goepfert

Contact : metmap@orbifly.com




SOURCES & CREDITS :

   NOAA